createdAt,value
2019-02-27T00:01:05.548Z,18.37
2019-02-27T00:02:02.524Z,18.37
2019-02-27T00:02:59.170Z,18.37
2019-02-27T00:03:56.050Z,18.37
2019-02-27T00:04:52.777Z,18.37
2019-02-27T00:05:49.394Z,18.37
2019-02-27T00:06:47.998Z,18.37
2019-02-27T00:07:44.776Z,18.37
2019-02-27T00:08:41.375Z,18.37
2019-02-27T00:09:38.006Z,18.37
2019-02-27T00:10:36.909Z,18.37
2019-02-27T00:11:33.160Z,18.37
2019-02-27T00:12:30.215Z,18.37
2019-02-27T00:13:26.903Z,18.37
2019-02-27T00:14:23.502Z,18.37
2019-02-27T00:15:20.234Z,18.37
2019-02-27T00:16:18.494Z,18.37
2019-02-27T00:17:18.000Z,18.37
2019-02-27T00:18:13.702Z,18.31
2019-02-27T00:19:10.691Z,18.37
2019-02-27T00:20:07.281Z,18.37
2019-02-27T00:21:03.978Z,18.37
2019-02-27T00:22:00.679Z,18.31
2019-02-27T00:22:57.288Z,18.31
2019-02-27T00:23:56.695Z,18.31
2019-02-27T00:24:52.898Z,18.31
2019-02-27T00:25:49.769Z,18.31
2019-02-27T00:26:46.365Z,18.31
2019-02-27T00:27:42.959Z,18.31
2019-02-27T00:28:39.634Z,18.31
2019-02-27T00:29:36.507Z,18.31
2019-02-27T00:30:33.150Z,18.31
2019-02-27T00:31:29.819Z,18.31
2019-02-27T00:32:26.437Z,18.31
2019-02-27T00:33:26.081Z,18.31
2019-02-27T00:34:21.762Z,18.31
2019-02-27T00:35:18.469Z,18.31
2019-02-27T00:36:15.089Z,18.31
2019-02-27T00:37:11.694Z,18.31
2019-02-27T00:38:08.634Z,18.31
2019-02-27T00:39:05.238Z,18.31
2019-02-27T00:40:05.303Z,18.31
2019-02-27T00:41:00.716Z,18.31
2019-02-27T00:41:57.324Z,18.31
2019-02-27T00:42:54.896Z,18.31
2019-02-27T00:43:51.747Z,18.31
2019-02-27T00:44:48.442Z,18.31
2019-02-27T00:45:45.141Z,18.31
2019-02-27T00:46:43.950Z,18.31
2019-02-27T00:47:40.522Z,18.31
2019-02-27T00:48:37.211Z,18.31
2019-02-27T00:49:33.835Z,18.31
2019-02-27T00:50:30.436Z,18.31
2019-02-27T00:51:27.058Z,18.31
2019-02-27T00:52:23.691Z,18.25
2019-02-27T00:53:22.018Z,18.31
2019-02-27T00:54:19.054Z,18.31
2019-02-27T00:55:15.658Z,18.31
2019-02-27T00:56:12.894Z,18.25
2019-02-27T00:57:09.673Z,18.25
2019-02-27T00:58:06.262Z,18.25
2019-02-27T00:59:02.863Z,18.25
2019-02-27T00:59:59.486Z,18.25
2019-02-27T01:00:56.140Z,18.25
2019-02-27T01:01:52.726Z,18.25
2019-02-27T01:02:52.638Z,18.25
2019-02-27T01:03:48.020Z,18.25
2019-02-27T01:04:44.734Z,18.25
2019-02-27T01:05:41.749Z,18.25
2019-02-27T01:06:38.781Z,18.25
2019-02-27T01:07:35.506Z,18.25
2019-02-27T01:08:32.134Z,18.25
2019-02-27T01:09:28.886Z,18.25
2019-02-27T01:10:25.494Z,18.25
2019-02-27T01:11:22.079Z,18.25
2019-02-27T01:12:18.678Z,18.25
2019-02-27T01:13:15.387Z,18.25
2019-02-27T01:14:12.559Z,18.25
2019-02-27T01:15:10.713Z,18.25
2019-02-27T01:16:07.758Z,18.25
2019-02-27T01:17:04.354Z,18.25
2019-02-27T01:18:01.040Z,18.25
2019-02-27T01:18:57.670Z,18.25
2019-02-27T01:19:54.277Z,18.25
2019-02-27T01:20:50.858Z,18.25
2019-02-27T01:21:47.558Z,18.25
2019-02-27T01:22:44.258Z,18.25
2019-02-27T01:23:43.708Z,18.25
2019-02-27T01:24:39.386Z,18.25
2019-02-27T01:25:36.092Z,18.25
2019-02-27T01:26:32.710Z,18.25
2019-02-27T01:27:29.306Z,18.25
2019-02-27T01:28:25.933Z,18.25
2019-02-27T01:29:23.307Z,18.19
2019-02-27T01:30:23.998Z,18.19
2019-02-27T01:31:18.461Z,18.19
2019-02-27T01:32:15.067Z,18.25
2019-02-27T01:33:11.763Z,18.19
2019-02-27T01:34:11.105Z,18.19
2019-02-27T01:35:07.009Z,18.19
2019-02-27T01:36:03.621Z,18.19
2019-02-27T01:37:00.221Z,18.19
2019-02-27T01:37:56.924Z,18.19
2019-02-27T01:38:53.648Z,18.19
2019-02-27T01:39:50.321Z,18.19
2019-02-27T01:40:49.007Z,18.19
2019-02-27T01:41:45.514Z,18.19
2019-02-27T01:42:42.121Z,18.19
2019-02-27T01:43:39.894Z,18.19
2019-02-27T01:44:37.256Z,18.19
2019-02-27T01:45:33.956Z,18.19
2019-02-27T01:46:30.808Z,18.19
2019-02-27T01:47:27.434Z,18.19
2019-02-27T01:48:24.271Z,18.19
2019-02-27T01:49:20.858Z,18.19
2019-02-27T01:50:19.966Z,18.19
2019-02-27T01:51:15.991Z,18.19
2019-02-27T01:52:12.691Z,18.19
2019-02-27T01:53:09.298Z,18.19
2019-02-27T01:54:05.967Z,18.19
2019-02-27T01:55:02.634Z,18.19
2019-02-27T01:55:59.335Z,18.19
2019-02-27T01:56:55.961Z,18.19
2019-02-27T01:57:52.608Z,18.19
2019-02-27T01:58:49.330Z,18.19
2019-02-27T01:59:50.065Z,18.19
2019-02-27T02:00:44.504Z,18.19
2019-02-27T02:01:41.183Z,18.19
2019-02-27T02:02:40.458Z,18.19
2019-02-27T02:03:36.693Z,18.19
2019-02-27T02:04:33.374Z,18.19
2019-02-27T02:05:30.412Z,18.19
2019-02-27T02:06:27.002Z,18.19
2019-02-27T02:07:23.619Z,18.19
2019-02-27T02:08:20.224Z,18.19
2019-02-27T02:09:21.051Z,18.19
2019-02-27T02:10:15.654Z,18.12
2019-02-27T02:11:12.339Z,18.19
2019-02-27T02:12:09.259Z,18.12
2019-02-27T02:13:05.849Z,18.12
2019-02-27T02:14:02.502Z,18.19
2019-02-27T02:14:59.122Z,18.19
2019-02-27T02:15:58.146Z,18.12
2019-02-27T02:16:54.222Z,18.12
2019-02-27T02:17:51.057Z,18.12
2019-02-27T02:18:48.223Z,18.12
2019-02-27T02:19:45.466Z,18.12
2019-02-27T02:20:42.090Z,18.12
2019-02-27T02:21:39.142Z,18.12
2019-02-27T02:22:35.774Z,18.12
2019-02-27T02:23:32.366Z,18.12
2019-02-27T02:24:29.011Z,18.12
2019-02-27T02:25:28.009Z,18.12
2019-02-27T02:26:24.144Z,18.12
2019-02-27T02:27:20.730Z,18.12
2019-02-27T02:28:17.333Z,18.12
2019-02-27T02:29:13.955Z,18.12
2019-02-27T02:30:10.982Z,18.12
2019-02-27T02:31:07.614Z,18.12
2019-02-27T02:32:04.286Z,18.12
2019-02-27T02:33:01.129Z,18.12
2019-02-27T02:33:57.806Z,18.12
2019-02-27T02:34:54.606Z,18.12
2019-02-27T02:35:51.219Z,18.12
2019-02-27T02:36:47.803Z,18.12
2019-02-27T02:37:44.415Z,18.12
2019-02-27T02:38:41.138Z,18.12
2019-02-27T02:39:37.743Z,18.12
2019-02-27T02:40:34.470Z,18.12
2019-02-27T02:41:31.243Z,18.12
2019-02-27T02:42:27.831Z,18.12
2019-02-27T02:43:24.447Z,18.12
2019-02-27T02:44:22.066Z,18.12
2019-02-27T02:45:18.878Z,18.12
2019-02-27T02:46:15.481Z,18.12
2019-02-27T02:47:12.137Z,18.12
2019-02-27T02:48:09.058Z,18.12
2019-02-27T02:49:07.882Z,18.12
2019-02-27T02:50:04.248Z,18.12
2019-02-27T02:51:01.356Z,18.12
2019-02-27T02:51:58.063Z,18.12
2019-02-27T02:52:54.674Z,18.12
2019-02-27T02:53:51.369Z,18.12
2019-02-27T02:54:47.962Z,18.12
2019-02-27T02:55:47.529Z,18.12
2019-02-27T02:56:43.099Z,18.12
2019-02-27T02:57:39.726Z,18.12
2019-02-27T02:58:36.315Z,18.12
2019-02-27T02:59:32.914Z,18.12
2019-02-27T03:00:29.514Z,18.06
2019-02-27T03:01:26.111Z,18.06
2019-02-27T03:02:23.762Z,18.12
2019-02-27T03:03:21.475Z,18.12
2019-02-27T03:04:18.187Z,18.06
2019-02-27T03:05:14.780Z,18.12
2019-02-27T03:06:11.380Z,18.06
2019-02-27T03:07:10.815Z,18.06
2019-02-27T03:08:06.503Z,18.06
2019-02-27T03:09:04.115Z,18.06
2019-02-27T03:10:07.030Z,18.06
2019-02-27T03:10:59.336Z,18.06
2019-02-27T03:11:55.971Z,18.06
2019-02-27T03:12:52.600Z,18.06
2019-02-27T03:13:49.207Z,18.06
2019-02-27T03:14:45.803Z,18.06
2019-02-27T03:15:42.419Z,18.06
2019-02-27T03:16:41.414Z,18.06
2019-02-27T03:17:37.748Z,18.06
2019-02-27T03:18:34.443Z,18.06
2019-02-27T03:19:31.030Z,18.06
2019-02-27T03:20:27.629Z,18.06
2019-02-27T03:21:27.496Z,18.06
2019-02-27T03:22:22.823Z,18.06
2019-02-27T03:23:19.596Z,18.06
2019-02-27T03:24:16.205Z,18.06
2019-02-27T03:25:12.814Z,18.06
2019-02-27T03:26:09.522Z,18.06
2019-02-27T03:27:06.102Z,18.06
2019-02-27T03:28:05.070Z,18.06
2019-02-27T03:29:01.455Z,18.06
2019-02-27T03:29:58.146Z,18.06
2019-02-27T03:30:54.748Z,18.06
2019-02-27T03:31:57.517Z,18.06
2019-02-27T03:32:50.364Z,18.06
2019-02-27T03:33:47.183Z,18.06
2019-02-27T03:34:50.379Z,18.06
2019-02-27T03:35:42.799Z,18.06
2019-02-27T03:36:39.749Z,18.06
2019-02-27T03:37:36.482Z,18.06
2019-02-27T03:38:33.119Z,18.06
2019-02-27T03:39:34.396Z,18.06
2019-02-27T03:40:28.222Z,18.06
2019-02-27T03:41:24.827Z,18.06
2019-02-27T03:42:21.497Z,18.06
2019-02-27T03:43:18.202Z,18.06
2019-02-27T03:44:20.203Z,18.06
2019-02-27T03:45:13.347Z,18.06
2019-02-27T03:46:09.994Z,18.06
2019-02-27T03:47:06.588Z,18.06
2019-02-27T03:48:03.191Z,18.06
2019-02-27T03:49:03.156Z,18.06
2019-02-27T03:49:58.322Z,18.06
2019-02-27T03:50:55.207Z,18.06
2019-02-27T03:51:51.904Z,18.06
2019-02-27T03:52:48.494Z,18.06
2019-02-27T03:53:46.428Z,18.06
2019-02-27T03:54:43.987Z,18.00
2019-02-27T03:55:40.686Z,18.06
2019-02-27T03:56:43.428Z,18.06
2019-02-27T03:57:36.241Z,18.00
2019-02-27T03:58:32.835Z,18.00
2019-02-27T03:59:29.812Z,18.00
2019-02-27T04:00:26.414Z,18.00
2019-02-27T04:01:30.266Z,18.00
2019-02-27T04:02:21.847Z,18.00
2019-02-27T04:03:18.736Z,18.00
2019-02-27T04:04:15.535Z,18.00
2019-02-27T04:05:12.189Z,18.00
2019-02-27T04:06:08.800Z,18.00
2019-02-27T04:07:05.801Z,18.00
2019-02-27T04:08:07.143Z,18.00
2019-02-27T04:09:01.318Z,18.00
2019-02-27T04:09:58.039Z,18.00
2019-02-27T04:10:54.675Z,18.00
2019-02-27T04:11:51.472Z,18.00
2019-02-27T04:12:51.432Z,18.00
2019-02-27T04:13:46.694Z,18.00
2019-02-27T04:14:43.314Z,18.00
2019-02-27T04:15:40.782Z,18.00
2019-02-27T04:16:38.208Z,18.00
2019-02-27T04:17:35.006Z,18.00
2019-02-27T04:18:31.784Z,18.00
2019-02-27T04:19:28.375Z,18.00
2019-02-27T04:20:25.048Z,18.00
2019-02-27T04:21:25.068Z,18.00
2019-02-27T04:22:20.458Z,18.00
2019-02-27T04:23:17.059Z,18.00
2019-02-27T04:24:13.656Z,18.00
2019-02-27T04:25:10.272Z,18.00
2019-02-27T04:26:06.880Z,18.00
2019-02-27T04:27:03.826Z,18.00
2019-02-27T04:28:00.511Z,18.00
2019-02-27T04:28:57.121Z,18.00
2019-02-27T04:29:53.711Z,18.00
2019-02-27T04:30:51.365Z,18.00
2019-02-27T04:31:49.130Z,18.00
2019-02-27T04:32:48.779Z,18.00
2019-02-27T04:33:44.298Z,18.00
2019-02-27T04:34:40.937Z,18.00
2019-02-27T04:35:39.643Z,18.00
2019-02-27T04:36:36.449Z,18.00
2019-02-27T04:37:33.051Z,18.00
2019-02-27T04:38:29.890Z,18.00
2019-02-27T04:39:26.596Z,18.00
2019-02-27T04:40:23.222Z,18.00
2019-02-27T04:41:19.824Z,18.00
2019-02-27T04:42:16.778Z,18.00
2019-02-27T04:43:13.379Z,18.00
2019-02-27T04:44:09.982Z,18.00
2019-02-27T04:45:06.606Z,18.00
2019-02-27T04:46:03.461Z,18.00
2019-02-27T04:47:00.060Z,18.00
2019-02-27T04:47:56.665Z,18.00
2019-02-27T04:48:53.286Z,18.00
2019-02-27T04:49:50.253Z,18.00
2019-02-27T04:50:46.873Z,18.00
2019-02-27T04:51:43.979Z,18.00
2019-02-27T04:52:40.682Z,18.00
2019-02-27T04:53:37.299Z,18.00
2019-02-27T04:54:35.086Z,18.00
2019-02-27T04:55:31.958Z,18.00
2019-02-27T04:56:28.656Z,18.00
2019-02-27T04:57:25.369Z,18.00
2019-02-27T04:58:21.955Z,18.00
2019-02-27T04:59:19.286Z,18.00
2019-02-27T05:00:16.417Z,18.00
2019-02-27T05:01:13.138Z,18.00
2019-02-27T05:02:12.081Z,18.00
2019-02-27T05:03:08.287Z,18.00
2019-02-27T05:04:04.877Z,18.00
2019-02-27T05:05:01.579Z,18.00
2019-02-27T05:05:58.263Z,18.00
2019-02-27T05:06:54.883Z,18.00
2019-02-27T05:07:54.153Z,17.94
2019-02-27T05:08:50.406Z,18.00
2019-02-27T05:09:47.130Z,18.00
2019-02-27T05:10:43.934Z,18.00
2019-02-27T05:11:40.634Z,18.00
2019-02-27T05:12:37.278Z,18.00
2019-02-27T05:13:34.572Z,18.00
2019-02-27T05:14:31.406Z,18.00
2019-02-27T05:15:28.384Z,18.00
2019-02-27T05:16:25.001Z,18.00
2019-02-27T05:17:22.060Z,18.00
2019-02-27T05:18:18.763Z,18.00
2019-02-27T05:19:15.397Z,18.00
2019-02-27T05:20:12.690Z,18.00
2019-02-27T05:21:09.363Z,18.00
2019-02-27T05:22:06.019Z,17.94
2019-02-27T05:23:02.827Z,18.00
2019-02-27T05:23:59.441Z,17.94
2019-02-27T05:24:56.014Z,17.94
2019-02-27T05:25:52.867Z,18.00
2019-02-27T05:26:49.479Z,17.94
2019-02-27T05:27:46.112Z,17.94
2019-02-27T05:28:42.711Z,17.94
2019-02-27T05:29:39.327Z,17.94
2019-02-27T05:30:36.360Z,17.94
2019-02-27T05:31:32.951Z,17.94
2019-02-27T05:32:29.572Z,17.94
2019-02-27T05:33:26.443Z,18.00
2019-02-27T05:34:23.090Z,18.00
2019-02-27T05:35:23.595Z,17.94
2019-02-27T05:36:18.271Z,17.94
2019-02-27T05:37:14.967Z,17.94
2019-02-27T05:38:11.597Z,17.94
2019-02-27T05:39:08.412Z,17.94
2019-02-27T05:40:05.038Z,18.00
2019-02-27T05:41:01.886Z,17.94
2019-02-27T05:41:58.581Z,17.94
2019-02-27T05:42:55.182Z,17.94
2019-02-27T05:43:51.815Z,17.94
2019-02-27T05:44:48.744Z,17.94
2019-02-27T05:45:45.351Z,17.94
2019-02-27T05:46:41.961Z,17.94
2019-02-27T05:47:38.598Z,17.94
2019-02-27T05:48:35.334Z,17.94
2019-02-27T05:49:32.036Z,17.94
2019-02-27T05:50:28.712Z,17.94
2019-02-27T05:51:25.335Z,17.94
2019-02-27T05:52:21.920Z,17.94
2019-02-27T05:53:22.152Z,17.94
2019-02-27T05:54:17.345Z,17.94
2019-02-27T05:55:14.047Z,17.94
2019-02-27T05:56:15.514Z,17.94
2019-02-27T05:57:09.150Z,17.94
2019-02-27T05:58:05.975Z,17.94
2019-02-27T05:59:02.718Z,17.94
2019-02-27T06:00:02.351Z,17.94
2019-02-27T06:00:57.902Z,17.94
2019-02-27T06:01:54.818Z,17.94
2019-02-27T06:02:51.851Z,17.94
2019-02-27T06:03:49.462Z,17.94
2019-02-27T06:04:47.074Z,17.94
2019-02-27T06:05:49.602Z,17.94
2019-02-27T06:06:44.951Z,17.94
2019-02-27T06:07:41.021Z,17.94
2019-02-27T06:08:38.159Z,17.94
2019-02-27T06:09:35.059Z,17.94
2019-02-27T06:10:31.641Z,17.94
2019-02-27T06:11:29.625Z,17.94
2019-02-27T06:12:26.774Z,17.94
2019-02-27T06:13:23.377Z,17.94
2019-02-27T06:14:21.362Z,17.94
2019-02-27T06:15:18.521Z,17.94
2019-02-27T06:16:15.139Z,17.94
2019-02-27T06:17:12.896Z,17.94
2019-02-27T06:18:10.333Z,17.94
2019-02-27T06:19:07.133Z,17.94
2019-02-27T06:20:07.695Z,17.94
2019-02-27T06:21:02.358Z,17.94
2019-02-27T06:21:58.958Z,17.94
2019-02-27T06:22:55.566Z,17.94
2019-02-27T06:23:52.170Z,17.94
2019-02-27T06:24:49.003Z,17.94
2019-02-27T06:25:45.599Z,17.94
2019-02-27T06:26:42.205Z,17.94
2019-02-27T06:27:39.408Z,17.94
2019-02-27T06:28:36.667Z,17.94
2019-02-27T06:29:33.306Z,17.94
2019-02-27T06:30:30.615Z,17.94
2019-02-27T06:31:28.262Z,17.94
2019-02-27T06:32:24.907Z,17.94
2019-02-27T06:33:21.588Z,17.94
2019-02-27T06:34:18.198Z,17.94
2019-02-27T06:35:14.858Z,17.94
2019-02-27T06:36:11.734Z,17.94
2019-02-27T06:37:08.354Z,17.94
2019-02-27T06:38:04.950Z,17.87
2019-02-27T06:39:01.545Z,17.87
2019-02-27T06:39:58.807Z,17.87
2019-02-27T06:40:55.532Z,17.87
2019-02-27T06:41:52.515Z,17.87
2019-02-27T06:42:53.639Z,17.87
2019-02-27T06:43:47.650Z,17.87
2019-02-27T06:44:44.346Z,17.87
2019-02-27T06:45:45.599Z,17.87
2019-02-27T06:46:39.466Z,17.87
2019-02-27T06:47:36.223Z,17.87
2019-02-27T06:48:33.029Z,17.87
2019-02-27T06:49:29.755Z,17.87
2019-02-27T06:50:26.507Z,17.87
2019-02-27T06:51:23.198Z,17.87
2019-02-27T06:52:19.809Z,17.87
2019-02-27T06:53:16.621Z,17.87
2019-02-27T06:54:13.346Z,17.81
2019-02-27T06:55:09.956Z,17.81
2019-02-27T06:56:06.585Z,17.81
2019-02-27T06:57:07.533Z,17.81
2019-02-27T06:58:01.847Z,17.81
2019-02-27T06:58:58.531Z,17.81
2019-02-27T06:59:57.513Z,17.75
2019-02-27T07:00:53.767Z,17.75
2019-02-27T07:01:50.462Z,17.75
2019-02-27T07:02:47.453Z,17.69
2019-02-27T07:03:44.068Z,17.62
2019-02-27T07:04:40.869Z,17.56
2019-02-27T07:05:37.551Z,17.56
2019-02-27T07:06:34.266Z,17.44
2019-02-27T07:07:31.314Z,17.37
2019-02-27T07:08:28.610Z,17.25
2019-02-27T07:09:25.220Z,17.19
2019-02-27T07:10:21.823Z,17.06
2019-02-27T07:11:18.467Z,16.94
2019-02-27T07:12:15.367Z,16.81
2019-02-27T07:13:12.067Z,16.75
2019-02-27T07:14:08.691Z,16.69
2019-02-27T07:15:05.662Z,16.56
2019-02-27T07:16:02.266Z,16.50
2019-02-27T07:16:59.214Z,16.44
2019-02-27T07:17:55.825Z,16.37
2019-02-27T07:18:52.431Z,16.31
2019-02-27T07:19:49.728Z,16.31
2019-02-27T07:20:47.331Z,16.25
2019-02-27T07:21:44.050Z,16.19
2019-02-27T07:22:45.638Z,16.19
2019-02-27T07:23:39.180Z,16.12
2019-02-27T07:24:35.830Z,16.06
2019-02-27T07:25:32.527Z,16.06
2019-02-27T07:26:29.388Z,16.00
2019-02-27T07:27:28.290Z,15.94
2019-02-27T07:28:24.794Z,15.94
2019-02-27T07:29:27.053Z,15.88
2019-02-27T07:30:19.999Z,15.88
2019-02-27T07:31:18.322Z,15.81
2019-02-27T07:32:15.150Z,15.81
2019-02-27T07:33:11.747Z,15.81
2019-02-27T07:34:08.421Z,15.94
2019-02-27T07:35:05.226Z,19.75
2019-02-27T07:36:03.632Z,21.69
2019-02-27T07:37:00.351Z,23.50
2019-02-27T07:37:56.994Z,28.94
2019-02-27T07:38:54.343Z,33.25
2019-02-27T07:39:52.215Z,34.94
2019-02-27T07:40:48.960Z,35.13
2019-02-27T07:41:45.707Z,35.00
2019-02-27T07:42:42.431Z,35.31
2019-02-27T07:43:39.179Z,35.63
2019-02-27T07:44:35.901Z,35.81
2019-02-27T07:45:33.217Z,35.81
2019-02-27T07:46:29.975Z,35.69
2019-02-27T07:47:26.954Z,34.94
2019-02-27T07:48:23.575Z,33.50
2019-02-27T07:49:20.182Z,31.62
2019-02-27T07:50:16.782Z,29.81
2019-02-27T07:51:13.411Z,29.12
2019-02-27T07:52:10.131Z,29.75
2019-02-27T07:53:06.835Z,31.12
2019-02-27T07:54:04.039Z,32.63
2019-02-27T07:55:00.771Z,34.06
2019-02-27T07:55:57.544Z,35.19
2019-02-27T07:56:54.156Z,36.13
2019-02-27T07:57:50.823Z,36.94
2019-02-27T07:58:47.574Z,37.56
2019-02-27T07:59:44.275Z,38.06
2019-02-27T08:00:42.762Z,38.44
2019-02-27T08:01:43.808Z,38.69
2019-02-27T08:02:37.949Z,38.88
2019-02-27T08:03:34.698Z,38.75
2019-02-27T08:04:31.502Z,38.38
2019-02-27T08:05:29.108Z,38.06
2019-02-27T08:06:25.951Z,37.81
2019-02-27T08:07:22.561Z,37.63
2019-02-27T08:08:23.286Z,37.44
2019-02-27T08:09:17.769Z,37.31
2019-02-27T08:10:14.394Z,37.19
2019-02-27T08:11:13.187Z,36.94
2019-02-27T08:12:09.534Z,36.63
2019-02-27T08:13:06.302Z,36.13
2019-02-27T08:14:03.369Z,35.44
2019-02-27T08:15:00.716Z,34.63
2019-02-27T08:15:57.958Z,33.63
2019-02-27T08:16:57.118Z,32.44
2019-02-27T08:17:57.446Z,31.37
2019-02-27T08:18:51.899Z,30.81
2019-02-27T08:19:48.515Z,31.31
2019-02-27T08:20:45.306Z,32.63
2019-02-27T08:21:41.910Z,34.31
2019-02-27T08:22:38.526Z,36.06
2019-02-27T08:23:35.166Z,37.38
2019-02-27T08:24:31.757Z,37.88
2019-02-27T08:25:28.472Z,37.94
2019-02-27T08:26:25.124Z,37.75
2019-02-27T08:27:21.895Z,37.56
2019-02-27T08:28:18.585Z,37.31
2019-02-27T08:29:15.454Z,37.13
2019-02-27T08:30:12.865Z,36.81
2019-02-27T08:31:09.518Z,36.44
2019-02-27T08:32:06.138Z,36.00
2019-02-27T08:33:02.743Z,35.31
2019-02-27T08:33:59.402Z,34.56
2019-02-27T08:34:56.430Z,33.63
2019-02-27T08:35:53.399Z,32.56
2019-02-27T08:36:50.071Z,31.50
2019-02-27T08:37:46.718Z,30.69
2019-02-27T08:38:43.481Z,30.75
2019-02-27T08:39:40.179Z,31.81
2019-02-27T08:40:36.783Z,33.38
2019-02-27T08:41:33.391Z,35.13
2019-02-27T08:42:30.022Z,36.50
2019-02-27T08:43:26.686Z,37.13
2019-02-27T08:44:23.442Z,37.25
2019-02-27T08:45:20.678Z,37.13
2019-02-27T08:46:17.571Z,36.94
2019-02-27T08:47:14.178Z,36.69
2019-02-27T08:48:10.777Z,36.38
2019-02-27T08:49:07.399Z,35.94
2019-02-27T08:50:04.386Z,35.50
2019-02-27T08:51:05.674Z,34.88
2019-02-27T08:51:59.510Z,34.13
2019-02-27T08:52:57.800Z,33.31
2019-02-27T08:53:59.064Z,32.31
2019-02-27T08:54:53.235Z,31.37
2019-02-27T08:55:50.006Z,30.62
2019-02-27T08:56:47.179Z,30.62
2019-02-27T08:57:44.647Z,31.69
2019-02-27T08:58:41.262Z,33.25
2019-02-27T08:59:39.807Z,34.94
2019-02-27T09:00:36.440Z,36.38
2019-02-27T09:01:33.287Z,36.94
2019-02-27T09:02:30.057Z,37.06
2019-02-27T09:03:26.829Z,36.94
2019-02-27T09:04:23.426Z,36.75
2019-02-27T09:05:20.948Z,36.44
2019-02-27T09:06:18.923Z,36.06
2019-02-27T09:07:15.652Z,35.63
2019-02-27T09:08:12.234Z,35.13
2019-02-27T09:09:08.895Z,34.50
2019-02-27T09:10:05.992Z,33.75
2019-02-27T09:11:06.631Z,32.94
2019-02-27T09:12:03.067Z,32.00
2019-02-27T09:13:05.468Z,31.12
2019-02-27T09:13:58.462Z,30.50
2019-02-27T09:14:55.983Z,30.62
2019-02-27T09:15:52.848Z,31.69
2019-02-27T09:16:49.566Z,33.19
2019-02-27T09:17:46.284Z,34.81
2019-02-27T09:18:44.165Z,36.00
2019-02-27T09:19:45.282Z,36.38
2019-02-27T09:20:39.508Z,36.31
2019-02-27T09:21:36.561Z,35.94
2019-02-27T09:22:33.849Z,35.50
2019-02-27T09:23:31.971Z,35.00
2019-02-27T09:24:28.578Z,34.50
2019-02-27T09:25:25.485Z,34.00
2019-02-27T09:26:22.185Z,33.44
2019-02-27T09:27:18.802Z,32.81
2019-02-27T09:28:15.400Z,32.13
2019-02-27T09:29:12.257Z,31.44
2019-02-27T09:30:09.337Z,30.75
2019-02-27T09:31:06.005Z,30.12
2019-02-27T09:32:02.642Z,29.87
2019-02-27T09:32:59.247Z,30.44
2019-02-27T09:33:56.211Z,31.69
2019-02-27T09:34:52.895Z,33.25
2019-02-27T09:35:49.515Z,34.75
2019-02-27T09:36:46.529Z,35.75
2019-02-27T09:37:43.210Z,36.13
2019-02-27T09:38:40.098Z,36.06
2019-02-27T09:39:36.792Z,35.75
2019-02-27T09:40:38.549Z,35.38
2019-02-27T09:41:32.063Z,34.88
2019-02-27T09:42:28.727Z,34.38
2019-02-27T09:43:27.212Z,33.81
2019-02-27T09:44:23.887Z,33.19
2019-02-27T09:45:20.591Z,32.44
2019-02-27T09:46:19.474Z,31.75
2019-02-27T09:47:15.966Z,30.94
2019-02-27T09:48:12.593Z,30.25
2019-02-27T09:49:09.305Z,29.94
2019-02-27T09:50:06.103Z,30.50
2019-02-27T09:51:02.698Z,31.69
2019-02-27T09:51:59.683Z,33.19
2019-02-27T09:52:56.303Z,34.69
2019-02-27T09:53:52.890Z,35.69
2019-02-27T09:54:49.506Z,36.06
2019-02-27T09:55:46.144Z,35.94
2019-02-27T09:56:42.915Z,35.56
2019-02-27T09:57:39.522Z,35.13
2019-02-27T09:58:36.194Z,34.63
2019-02-27T09:59:32.906Z,34.13
2019-02-27T10:00:29.769Z,33.56
2019-02-27T10:01:26.483Z,32.94
2019-02-27T10:02:23.187Z,32.31
2019-02-27T10:03:21.390Z,31.62
2019-02-27T10:04:18.679Z,31.00
2019-02-27T10:05:15.295Z,30.50
2019-02-27T10:06:11.937Z,30.06
2019-02-27T10:07:08.686Z,29.69
2019-02-27T10:08:07.498Z,29.37
2019-02-27T10:09:04.164Z,29.00
2019-02-27T10:10:00.949Z,28.75
2019-02-27T10:10:57.579Z,28.38
2019-02-27T10:11:54.730Z,28.06
2019-02-27T10:12:51.450Z,27.81
2019-02-27T10:13:48.069Z,27.56
2019-02-27T10:14:44.800Z,27.37
2019-02-27T10:15:41.446Z,27.19
2019-02-27T10:16:38.246Z,27.00
2019-02-27T10:17:34.865Z,26.87
2019-02-27T10:18:31.489Z,26.75
2019-02-27T10:19:28.120Z,26.62
2019-02-27T10:20:24.726Z,26.56
2019-02-27T10:21:21.433Z,26.44
2019-02-27T10:22:20.293Z,26.37
2019-02-27T10:23:16.780Z,26.25
2019-02-27T10:24:13.383Z,26.19
2019-02-27T10:25:09.976Z,26.06
2019-02-27T10:26:06.619Z,26.00
2019-02-27T10:27:03.325Z,25.94
2019-02-27T10:28:03.383Z,25.81
2019-02-27T10:28:58.575Z,25.75
2019-02-27T10:29:55.202Z,25.62
2019-02-27T10:30:51.808Z,25.56
2019-02-27T10:31:48.434Z,25.50
2019-02-27T10:32:45.346Z,25.44
2019-02-27T10:33:42.956Z,25.31
2019-02-27T10:34:40.281Z,25.25
2019-02-27T10:35:37.027Z,25.19
2019-02-27T10:36:38.016Z,25.12
2019-02-27T10:37:32.536Z,25.06
2019-02-27T10:38:29.291Z,25.00
2019-02-27T10:39:25.890Z,24.94
2019-02-27T10:40:22.694Z,24.87
2019-02-27T10:41:19.425Z,24.81
2019-02-27T10:42:16.289Z,24.75
2019-02-27T10:43:12.949Z,24.69
2019-02-27T10:44:09.819Z,24.63
2019-02-27T10:45:09.788Z,24.56
2019-02-27T10:46:05.250Z,24.50
2019-02-27T10:47:01.934Z,24.44
2019-02-27T10:47:58.702Z,24.37
2019-02-27T10:48:55.459Z,24.31
2019-02-27T10:49:52.185Z,24.25
2019-02-27T10:50:48.956Z,24.19
2019-02-27T10:51:45.582Z,24.19
2019-02-27T10:52:42.418Z,24.12
2019-02-27T10:53:39.147Z,24.06
2019-02-27T10:54:37.015Z,24.00
2019-02-27T10:55:34.403Z,23.94
2019-02-27T10:56:31.206Z,23.87
2019-02-27T10:57:31.431Z,23.81
2019-02-27T10:58:26.392Z,23.75
2019-02-27T10:59:23.155Z,23.75
2019-02-27T11:00:19.766Z,23.69
2019-02-27T11:01:16.495Z,23.62
2019-02-27T11:02:13.366Z,23.56
2019-02-27T11:03:10.101Z,23.56
2019-02-27T11:04:06.798Z,23.50
2019-02-27T11:05:03.430Z,23.44
2019-02-27T11:06:00.415Z,23.38
2019-02-27T11:06:57.054Z,23.38
2019-02-27T11:07:53.778Z,23.31
2019-02-27T11:08:50.579Z,23.25
2019-02-27T11:09:47.242Z,23.19
2019-02-27T11:10:43.926Z,23.19
2019-02-27T11:11:40.662Z,23.12
2019-02-27T11:12:37.406Z,23.06
2019-02-27T11:13:34.101Z,23.06
2019-02-27T11:14:32.014Z,23.00
2019-02-27T11:15:29.478Z,23.00
2019-02-27T11:16:27.945Z,22.94
2019-02-27T11:17:24.915Z,22.87
2019-02-27T11:18:21.620Z,22.87
2019-02-27T11:19:18.226Z,22.81
2019-02-27T11:20:20.315Z,22.75
2019-02-27T11:21:13.810Z,22.75
2019-02-27T11:22:10.445Z,22.69
2019-02-27T11:23:07.779Z,22.69
2019-02-27T11:24:04.946Z,22.62
2019-02-27T11:25:01.674Z,22.62
2019-02-27T11:25:58.404Z,22.56
2019-02-27T11:26:56.926Z,22.50
2019-02-27T11:27:53.782Z,22.50
2019-02-27T11:28:50.532Z,22.44
2019-02-27T11:29:47.287Z,22.44
2019-02-27T11:30:44.013Z,22.44
2019-02-27T11:31:42.324Z,22.37
2019-02-27T11:32:39.187Z,22.31
2019-02-27T11:33:35.905Z,22.31
2019-02-27T11:34:32.574Z,22.31
2019-02-27T11:35:29.329Z,22.25
2019-02-27T11:36:25.934Z,22.25
2019-02-27T11:37:23.204Z,22.19
2019-02-27T11:38:24.357Z,22.19
2019-02-27T11:39:18.886Z,22.13
2019-02-27T11:40:15.894Z,22.13
2019-02-27T11:41:14.928Z,22.13
2019-02-27T11:42:11.348Z,22.06
2019-02-27T11:43:08.071Z,22.06
2019-02-27T11:44:04.804Z,22.00
2019-02-27T11:45:01.567Z,22.00
2019-02-27T11:45:58.706Z,22.00
2019-02-27T11:46:58.960Z,21.94
2019-02-27T11:47:53.913Z,21.94
2019-02-27T11:48:50.531Z,21.87
2019-02-27T11:49:47.366Z,21.87
2019-02-27T11:50:43.986Z,21.81
2019-02-27T11:51:40.622Z,21.81
2019-02-27T11:52:37.342Z,21.81
2019-02-27T11:53:35.858Z,21.81
2019-02-27T11:54:32.555Z,21.75
2019-02-27T11:55:29.178Z,21.75
2019-02-27T11:56:25.924Z,21.75
2019-02-27T11:57:22.542Z,21.69
2019-02-27T11:58:19.382Z,21.69
2019-02-27T11:59:16.134Z,21.62
2019-02-27T12:00:13.723Z,21.62
2019-02-27T12:01:12.137Z,21.62
2019-02-27T12:02:09.032Z,21.56
2019-02-27T12:03:05.661Z,21.56
2019-02-27T12:04:02.290Z,21.56
2019-02-27T12:04:58.928Z,21.50
2019-02-27T12:05:55.889Z,21.50
2019-02-27T12:06:52.786Z,21.50
2019-02-27T12:07:51.202Z,21.44
2019-02-27T12:08:48.035Z,21.44
2019-02-27T12:09:44.665Z,21.44
2019-02-27T12:10:41.566Z,21.37
2019-02-27T12:11:38.253Z,21.37
2019-02-27T12:12:35.288Z,21.37
2019-02-27T12:13:32.361Z,21.31
2019-02-27T12:14:30.502Z,21.31